Main page
METAR-TAF:

METAR-TAF

Airports :

RAF Wittering

Wittering, England

latitude: 52-37N, longitude: 000-28W, elevation: 84 m

Current weather observation

The report was made 57 minutes ago, at 04:50 UTC
Wind 10 kt from the West
Temperature 13°C
Humidity 88%
Pressure 1013 hPa
Visibility 10 km or more

METAR: EGXT 170450Z AUTO 26010KT 9999 NCD 13/11 Q1013

Time: 06:47 (05:47 UTC)

Forecast

The report was made 18 hours and 52 minutes ago, at 10:55 UTC
Forecast valid from 16 at 12 UTC to 16 at 18 UTC
Wind 7 kt from the West/Southwest
Visibility 10 km or more
no clouds below 1500 m and no cumulonimbus

TAF: EGXT 161055Z 1612/1618 24007KT CAVOK

Weather observations and forecasts of more than 4000 airports (METAR and TAF reports).

The available stations are represented by yellow and red dots on the map.

Hover mouse over dot to see the name of the station.

Then click to see weather observations and forecasts.

To change the map : click on the green buttons with a black cross to zoom in, on the green button with a dash to zoom out, or on the green arrows for adjacent maps.


METAR-TAF: